Time,TemperatureF,DewpointF,PressureIn,WindDirection,WindDirectionDegrees,WindSpeedMPH,WindSpeedGustMPH,Humidity,HourlyPrecipIn,Conditions,Clouds,dailyrainin,SoftwareType,DateUTC
2013-08-18 00:13:00,60.1,57.0,30.06,West,273,0.0,0.0,90,0.00,,,0.00,weatherlink.com 1.10,2013-08-18 07:13:00,
2013-08-18 00:28:00,60.2,57.0,30.06,West,271,0.0,0.0,90,0.00,,,0.00,weatherlink.com 1.10,2013-08-18 07:28:00,
2013-08-18 00:43:00,60.2,57.0,30.05,West,273,0.0,1.0,89,0.00,,,0.00,weatherlink.com 1.10,2013-08-18 07:43:00,
2013-08-18 00:58:00,60.4,57.0,30.06,West,272,0.0,1.0,89,0.00,,,0.00,weatherlink.com 1.10,2013-08-18 07:58:00,
2013-08-18 01:13:00,60.5,57.0,30.06,West,272,0.0,0.0,89,0.00,,,0.00,weatherlink.com 1.10,2013-08-18 08:13:00,
2013-08-18 01:28:00,60.5,57.0,30.06,West,272,0.0,0.0,89,0.00,,,0.00,weatherlink.com 1.10,2013-08-18 08:28:00,
2013-08-18 01:43:00,60.4,57.0,30.06,West,273,0.0,0.0,89,0.00,,,0.00,weatherlink.com 1.10,2013-08-18 08:43:00,
2013-08-18 01:58:00,60.3,57.0,30.06,West,272,0.0,0.0,90,0.00,,,0.00,weatherlink.com 1.10,2013-08-18 08:58:00,
2013-08-18 02:13:00,60.4,58.0,30.06,West,273,0.0,0.0,90,0.00,,,0.00,weatherlink.com 1.10,2013-08-18 09:13:00,
2013-08-18 02:28:00,60.3,57.0,30.06,West,271,0.0,1.0,90,0.00,,,0.00,weatherlink.com 1.10,2013-08-18 09:28:00,
2013-08-18 02:43:00,60.4,58.0,30.06,West,273,0.0,0.0,90,0.00,,,0.00,weatherlink.com 1.10,2013-08-18 09:43:00,
2013-08-18 02:58:00,60.5,58.0,30.06,West,269,0.0,1.0,90,0.00,,,0.00,weatherlink.com 1.10,2013-08-18 09:58:00,
2013-08-18 03:13:00,60.5,58.0,30.06,SW,221,0.0,1.0,90,0.00,,,0.00,weatherlink.com 1.10,2013-08-18 10:13:00,
2013-08-18 03:28:00,60.6,57.0,30.06,SW,221,0.0,1.0,89,0.00,,,0.00,weatherlink.com 1.10,2013-08-18 10:28:00,
2013-08-18 03:43:00,60.3,57.0,30.06,SW,221,0.0,0.0,89,0.00,,,0.00,weatherlink.com 1.10,2013-08-18 10:43:00,
2013-08-18 03:58:00,59.9,57.0,30.06,SW,222,0.0,1.0,90,0.00,,,0.00,weatherlink.com 1.10,2013-08-18 10:58:00,
2013-08-18 04:13:00,59.6,57.0,30.06,WSW,239,0.0,1.0,91,0.00,,,0.00,weatherlink.com 1.10,2013-08-18 11:13:00,
2013-08-18 04:28:00,59.3,57.0,30.06,WSW,240,1.0,2.0,91,0.00,,,0.00,weatherlink.com 1.10,2013-08-18 11:28:00,
2013-08-18 04:43:00,59.4,57.0,30.06,SE,124,1.0,1.0,92,0.00,,,0.00,weatherlink.com 1.10,2013-08-18 11:43:00,
2013-08-18 04:58:00,59.9,57.0,30.07,SE,124,0.0,1.0,91,0.00,,,0.00,weatherlink.com 1.10,2013-08-18 11:58:00,
2013-08-18 05:13:00,59.6,57.0,30.07,WSW,241,1.0,1.0,91,0.00,,,0.00,weatherlink.com 1.10,2013-08-18 12:13:00,
2013-08-18 05:28:00,58.7,56.0,30.07,West,259,1.0,1.0,92,0.00,,,0.00,weatherlink.com 1.10,2013-08-18 12:28:00,
2013-08-18 05:43:00,58.2,56.0,30.07,West,262,0.0,1.0,93,0.00,,,0.00,weatherlink.com 1.10,2013-08-18 12:43:00,
2013-08-18 05:58:00,57.6,56.0,30.07,West,262,0.0,1.0,94,0.00,,,0.00,weatherlink.com 1.10,2013-08-18 12:58:00,
2013-08-18 06:13:00,57.7,56.0,30.08,West,262,0.0,0.0,94,0.00,,,0.00,weatherlink.com 1.10,2013-08-18 13:13:00,
2013-08-18 06:28:00,58.1,56.0,30.08,West,262,0.0,0.0,94,0.00,,,0.00,weatherlink.com 1.10,2013-08-18 13:28:00,
2013-08-18 06:43:00,58.5,57.0,30.08,SW,235,1.0,1.0,95,0.00,,,0.00,weatherlink.com 1.10,2013-08-18 13:43:00,
2013-08-18 06:58:00,58.8,57.0,30.08,SSE,166,2.0,2.0,93,0.00,,,0.00,weatherlink.com 1.10,2013-08-18 13:58:00,
2013-08-18 07:13:00,59.3,57.0,30.08,SSE,165,2.0,3.0,93,0.00,,,0.00,weatherlink.com 1.10,2013-08-18 14:13:00,
2013-08-18 07:28:00,59.7,57.0,30.09,ESE,122,2.0,4.0,92,0.00,,,0.00,weatherlink.com 1.10,2013-08-18 14:28:00,
2013-08-18 07:44:00,60.0,58.0,30.08,SSE,153,3.0,5.0,92,0.00,,,0.00,weatherlink.com 1.10,2013-08-18 14:44:00,
2013-08-18 07:59:00,60.2,58.0,30.09,ESE,106,3.0,4.0,91,0.00,,,0.00,weatherlink.com 1.10,2013-08-18 14:59:00,
2013-08-18 08:14:00,60.5,58.0,30.09,South,169,2.0,5.0,91,0.00,,,0.00,weatherlink.com 1.10,2013-08-18 15:14:00,
2013-08-18 08:29:00,60.5,58.0,30.09,SE,137,4.0,7.0,91,0.00,,,0.00,weatherlink.com 1.10,2013-08-18 15:29:00,
2013-08-18 08:44:00,60.8,59.0,30.09,South,172,4.0,6.0,92,0.00,,,0.00,weatherlink.com 1.10,2013-08-18 15:44:00,
2013-08-18 08:59:00,61.1,59.0,30.09,SSE,149,4.0,7.0,91,0.00,,,0.00,weatherlink.com 1.10,2013-08-18 15:59:00,
2013-08-18 09:14:00,61.3,59.0,30.09,SE,131,4.0,7.0,91,0.00,,,0.00,weatherlink.com 1.10,2013-08-18 16:14:00,
2013-08-18 09:29:00,61.4,59.0,30.09,SE,125,5.0,9.0,90,0.00,,,0.00,weatherlink.com 1.10,2013-08-18 16:29:00,
2013-08-18 09:44:00,62.1,59.0,30.09,SSE,151,7.0,9.0,89,0.00,,,0.00,weatherlink.com 1.10,2013-08-18 16:44:00,
2013-08-18 09:59:00,62.8,59.0,30.09,SE,137,11.0,12.0,87,0.00,,,0.00,weatherlink.com 1.10,2013-08-18 16:59:00,
2013-08-18 10:14:00,62.2,58.0,30.09,SSE,160,8.0,13.0,87,0.00,,,0.00,weatherlink.com 1.10,2013-08-18 17:14:00,
2013-08-18 10:29:00,62.2,57.0,30.09,South,188,8.0,10.0,84,0.00,,,0.00,weatherlink.com 1.10,2013-08-18 17:29:00,
2013-08-18 10:44:00,63.3,58.0,30.10,South,183,3.0,12.0,83,0.00,,,0.00,weatherlink.com 1.10,2013-08-18 17:44:00,
2013-08-18 10:59:00,63.0,58.0,30.10,South,172,6.0,11.0,83,0.00,,,0.00,weatherlink.com 1.10,2013-08-18 17:59:00,
2013-08-18 11:14:00,63.1,58.0,30.10,SSE,165,6.0,12.0,83,0.00,,,0.00,weatherlink.com 1.10,2013-08-18 18:14:00,
2013-08-18 11:29:00,63.3,58.0,30.09,South,170,4.0,11.0,83,0.00,,,0.00,weatherlink.com 1.10,2013-08-18 18:29:00,
2013-08-18 11:44:00,64.6,58.0,30.09,South,179,9.0,14.0,80,0.00,,,0.00,weatherlink.com 1.10,2013-08-18 18:44:00,
2013-08-18 11:59:00,65.5,59.0,30.09,SE,137,5.0,10.0,79,0.00,,,0.00,weatherlink.com 1.10,2013-08-18 18:59:00,
2013-08-18 12:14:00,65.9,59.0,30.09,ESE,106,2.0,6.0,77,0.00,,,0.00,weatherlink.com 1.10,2013-08-18 19:14:00,
2013-08-18 12:29:00,67.6,59.0,30.09,SSE,165,6.0,13.0,74,0.00,,,0.00,weatherlink.com 1.10,2013-08-18 19:29:00,
2013-08-18 12:44:00,68.4,59.0,30.08,South,183,10.0,14.0,73,0.00,,,0.00,weatherlink.com 1.10,2013-08-18 19:44:00,
2013-08-18 12:59:00,69.2,59.0,30.07,SSE,165,7.0,11.0,71,0.00,,,0.00,weatherlink.com 1.10,2013-08-18 19:59:00,
2013-08-18 13:14:00,70.0,60.0,30.07,SSE,156,7.0,14.0,70,0.00,,,0.00,weatherlink.com 1.10,2013-08-18 20:14:00,
2013-08-18 13:29:00,71.2,61.0,30.08,SSE,159,1.0,6.0,69,0.00,,,0.00,weatherlink.com 1.10,2013-08-18 20:29:00,
2013-08-18 13:44:00,72.3,60.0,30.07,SSE,160,8.0,16.0,65,0.00,,,0.00,weatherlink.com 1.10,2013-08-18 20:44:00,
2013-08-18 13:59:00,71.9,60.0,30.08,SE,136,4.0,12.0,66,0.00,,,0.00,weatherlink.com 1.10,2013-08-18 20:59:00,
2013-08-18 14:14:00,71.7,60.0,30.08,SSW,201,2.0,8.0,67,0.00,,,0.00,weatherlink.com 1.10,2013-08-18 21:14:00,
2013-08-18 14:29:00,71.4,60.0,30.07,ESE,120,4.0,6.0,67,0.00,,,0.00,weatherlink.com 1.10,2013-08-18 21:29:00,
2013-08-18 14:44:00,71.7,61.0,30.07,SSE,151,3.0,8.0,68,0.00,,,0.00,weatherlink.com 1.10,2013-08-18 21:44:00,
2013-08-18 14:59:00,71.8,60.0,30.07,ENE,78,0.0,6.0,67,0.00,,,0.00,weatherlink.com 1.10,2013-08-18 21:59:00,
2013-08-18 15:14:00,71.0,60.0,30.07,NE,56,3.0,5.0,69,0.00,,,0.00,weatherlink.com 1.10,2013-08-18 22:14:00,
2013-08-18 15:29:00,68.7,59.0,30.08,NNE,13,8.0,11.0,72,0.00,,,0.00,weatherlink.com 1.10,2013-08-18 22:29:00,
2013-08-18 15:44:00,67.5,59.0,30.08,NNW,342,6.0,11.0,74,0.00,,,0.00,weatherlink.com 1.10,2013-08-18 22:44:00,
2013-08-18 15:59:00,67.3,59.0,30.08,NNE,20,5.0,10.0,74,0.00,,,0.00,weatherlink.com 1.10,2013-08-18 22:59:00,
2013-08-18 16:14:00,67.4,57.0,30.08,NNE,32,5.0,13.0,70,0.00,,,0.00,weatherlink.com 1.10,2013-08-18 23:14:00,
2013-08-18 16:29:00,67.5,57.0,30.08,North,356,7.0,10.0,70,0.00,,,0.00,weatherlink.com 1.10,2013-08-18 23:29:00,
2013-08-18 16:44:00,68.3,58.0,30.07,NNE,16,9.0,12.0,69,0.00,,,0.00,weatherlink.com 1.10,2013-08-18 23:44:00,
2013-08-18 16:59:00,68.7,58.0,30.07,NNW,342,4.0,12.0,68,0.00,,,0.00,weatherlink.com 1.10,2013-08-18 23:59:00,
2013-08-18 17:14:00,68.4,58.0,30.07,North,8,10.0,14.0,69,0.00,,,0.00,weatherlink.com 1.10,2013-08-19 00:14:00,
2013-08-18 17:29:00,68.0,58.0,30.07,NNW,343,8.0,11.0,71,0.00,,,0.00,weatherlink.com 1.10,2013-08-19 00:29:00,
2013-08-18 17:59:00,68.6,58.0,30.07,North,350,5.0,8.0,69,0.00,,,0.00,weatherlink.com 1.10,2013-08-19 00:59:00,
2013-08-18 18:14:00,68.8,58.0,30.06,NW,326,3.0,10.0,69,0.00,,,0.00,weatherlink.com 1.10,2013-08-19 01:14:00,
2013-08-18 18:30:00,68.6,58.0,30.06,NNW,345,1.0,9.0,70,0.00,,,0.00,weatherlink.com 1.10,2013-08-19 01:30:00,
2013-08-18 18:45:00,68.8,59.0,30.06,North,356,4.0,7.0,70,0.00,,,0.00,weatherlink.com 1.10,2013-08-19 01:45:00,
2013-08-18 19:00:00,68.3,58.0,30.05,NNE,27,3.0,4.0,70,0.00,,,0.00,weatherlink.com 1.10,2013-08-19 02:00:00,
2013-08-18 19:15:00,67.4,58.0,30.06,NE,39,2.0,7.0,72,0.00,,,0.00,weatherlink.com 1.10,2013-08-19 02:15:00,
2013-08-18 19:30:00,67.0,57.0,30.05,NW,314,2.0,10.0,71,0.00,,,0.00,weatherlink.com 1.10,2013-08-19 02:30:00,
2013-08-18 19:45:00,66.5,58.0,30.06,NNW,330,3.0,8.0,73,0.00,,,0.00,weatherlink.com 1.10,2013-08-19 02:45:00,
2013-08-18 20:00:00,65.9,57.0,30.06,NNE,12,3.0,5.0,74,0.00,,,0.00,weatherlink.com 1.10,2013-08-19 03:00:00,
2013-08-18 20:15:00,65.2,57.0,30.05,WNW,288,0.0,1.0,76,0.00,,,0.00,weatherlink.com 1.10,2013-08-19 03:15:00,
2013-08-18 20:30:00,64.3,58.0,30.06,West,270,1.0,1.0,79,0.00,,,0.00,weatherlink.com 1.10,2013-08-19 03:30:00,
2013-08-18 20:45:00,63.2,57.0,30.06,West,270,0.0,1.0,81,0.00,,,0.00,weatherlink.com 1.10,2013-08-19 03:45:00,
2013-08-18 21:00:00,62.2,57.0,30.06,West,269,0.0,1.0,83,0.00,,,0.00,weatherlink.com 1.10,2013-08-19 04:00:00,
2013-08-18 21:15:00,61.5,57.0,30.06,SW,217,1.0,1.0,85,0.00,,,0.00,weatherlink.com 1.10,2013-08-19 04:15:00,
2013-08-18 21:30:00,61.1,57.0,30.06,SW,224,0.0,1.0,86,0.00,,,0.00,weatherlink.com 1.10,2013-08-19 04:30:00,
2013-08-18 21:45:00,60.4,57.0,30.06,WSW,254,1.0,1.0,87,0.00,,,0.00,weatherlink.com 1.10,2013-08-19 04:45:00,
2013-08-18 22:00:00,59.8,56.0,30.07,West,262,0.0,1.0,88,0.00,,,0.00,weatherlink.com 1.10,2013-08-19 05:00:00,
2013-08-18 22:15:00,59.6,56.0,30.07,West,263,0.0,1.0,89,0.00,,,0.00,weatherlink.com 1.10,2013-08-19 05:15:00,
2013-08-18 22:30:00,59.5,56.0,30.07,West,264,0.0,0.0,88,0.00,,,0.00,weatherlink.com 1.10,2013-08-19 05:30:00,
2013-08-18 22:45:00,59.4,56.0,30.07,West,263,0.0,1.0,89,0.00,,,0.00,weatherlink.com 1.10,2013-08-19 05:45:00,
2013-08-18 23:00:00,59.5,56.0,30.07,West,263,0.0,0.0,89,0.00,,,0.00,weatherlink.com 1.10,2013-08-19 06:00:00,
2013-08-18 23:15:00,59.7,57.0,30.06,West,263,0.0,0.0,89,0.00,,,0.00,weatherlink.com 1.10,2013-08-19 06:15:00,
2013-08-18 23:30:00,59.8,57.0,30.06,West,264,0.0,0.0,89,0.00,,,0.00,weatherlink.com 1.10,2013-08-19 06:30:00,
2013-08-18 23:45:00,59.9,56.0,30.07,West,263,0.0,0.0,88,0.00,,,0.00,weatherlink.com 1.10,2013-08-19 06:45:00,